Terminal Aerodrome Forecast
Issued by NWS Wichita, KS

Home | Current Version | Previous Version | Text Only | Print | Product List | Glossary On
Versions: 1 2 3 4 5 6 7 8 9 10 11 12
000
FTUS43 KICT 111919 AAA
TAFICT
TAF AMD
KICT 111919Z 1119/1218 33025G35KT P6SM SCT250
     FM120200 35012G20KT P6SM FEW250
     FM120700 35009KT P6SM SKC
     FM121300 32005KT P6SM SKC=

USA.gov is the U.S. government's official web portal to all federal, state and local government web resources and services.